aviador You're here:

EIDW Decoded Metar

DUBLIN in IRELAND
Report Time2017-12-11 22:30:00
UTC Time2017-12-11 22:59:31
Flight Rules vfr VFR
Wind300° at 10 kt
W.Decomp.*RWY 28: 9.1 kt HW 4.1 kt RCW
RWY 34: 8.1 kt HW 5.9 kt LCW
W.Rank300° ranks 15
Current wind is above 300° avg. (9.2)
Visibility9999 m
Phenomena:N/A
Clouds:Few 020 Hf
Scattered 030 Hf
CeilingNone
Temp00°C (ISA -15)
Dew Point00°C (100% RH)
AAT-5.6°C
QNH1002 hPa
Density Alt-1,070 ft
Elevation242 ft
Report Wrong Elevation
Raw Report
METAR EIDW 112230Z 30010KT 9999 FEW020 SCT030 00/M00 Q1002 R10/110095
R16/110095 NOSIG=

Extra information for EIDW:More info

Metar Taf Metar & Taf Last 4 Metars F.Rules Stats Wind Profile Meteogram Temp Stats Airport Information Weather charts Add Link Nearby VenuesMetar ALERT Operation Metar Decoded Social comments